Time;durP1;ratioP1;P1;durP2;ratioP2;P2;SDS_P1;SDS_P2;PMS_P1;PMS_P2;Temp;Humidity;BMP_temperature;BMP_pressure;BME280_temperature;BME280_humidity;BME280_pressure;Samples;Min_cycle;Max_cycle;Signal;HPM_P1;HPM_P2
2023/09/04 00:01:25;;;;;;;20.27;8.85;;;;;;;13.40;100.00;102578.13;6240845;23;20000;-82
2023/09/04 00:03:54;;;;;;;23.15;9.43;;;;;;;13.39;100.00;102577.25;6213901;23;20406;-82
2023/09/04 00:06:19;;;;;;;21.35;9.55;;;;;;;13.37;100.00;102575.63;6214507;23;20018;-82
2023/09/04 00:08:44;;;;;;;22.58;10.15;;;;;;;13.34;100.00;102573.94;6241367;23;20079;-82
2023/09/04 00:11:10;;;;;;;20.83;9.23;;;;;;;13.33;100.00;102576.72;6214096;23;20373;-82
2023/09/04 00:13:36;;;;;;;19.48;9.38;;;;;;;13.31;100.00;102568.69;6214475;23;20004;-82
2023/09/04 00:16:01;;;;;;;20.42;9.35;;;;;;;13.28;100.00;102566.19;6214421;23;20030;-82
2023/09/04 00:18:27;;;;;;;21.75;10.55;;;;;;;13.26;100.00;102566.25;6242074;23;20457;-82
2023/09/04 00:20:52;;;;;;;20.98;10.00;;;;;;;13.26;100.00;102565.38;6240714;23;20070;-82
2023/09/04 00:23:17;;;;;;;21.80;10.32;;;;;;;13.23;100.00;102568.25;6241971;23;20512;-82
2023/09/04 00:25:43;;;;;;;18.92;9.05;;;;;;;13.20;100.00;102565.72;6214478;23;20015;-82
2023/09/04 00:28:09;;;;;;;22.10;9.85;;;;;;;13.15;100.00;102567.81;6214350;23;20346;-82
2023/09/04 00:30:34;;;;;;;21.95;10.32;;;;;;;13.15;100.00;102568.69;6214796;23;19996;-82
2023/09/04 00:32:59;;;;;;;21.70;9.90;;;;;;;13.12;100.00;102560.78;6241623;23;20055;-82
2023/09/04 00:35:25;;;;;;;23.08;10.63;;;;;;;13.09;100.00;102564.50;6242167;23;20122;-82
2023/09/04 00:37:50;;;;;;;21.17;9.43;;;;;;;13.06;100.00;102561.09;6214513;23;20004;-82
2023/09/04 00:40:16;;;;;;;21.70;9.55;;;;;;;13.04;100.00;102554.94;6214075;23;19996;-82
2023/09/04 00:42:41;;;;;;;19.35;8.88;;;;;;;13.03;100.00;102563.97;6213681;23;20062;-82
2023/09/04 00:45:11;;;;;;;21.15;9.75;;;;;;;13.00;100.00;102558.75;6214322;23;20004;-82
2023/09/04 00:47:44;;;;;;;20.85;9.57;;;;;;;12.96;100.00;102565.28;6241858;23;20015;-83
2023/09/04 00:50:13;;;;;;;20.10;9.38;;;;;;;12.91;100.00;102573.63;6241437;23;20491;-82
2023/09/04 00:52:39;;;;;;;20.10;10.18;;;;;;;12.88;100.00;102569.28;6240518;23;20095;-82
2023/09/04 00:55:09;;;;;;;21.48;10.52;;;;;;;12.89;100.00;102570.16;6241192;23;20042;-82
2023/09/04 00:57:36;;;;;;;21.40;10.10;;;;;;;12.88;100.00;102565.72;6241383;23;20004;-82
2023/09/04 01:00:07;;;;;;;21.52;9.02;;;;;;;12.87;100.00;102569.34;6241600;23;20441;-82
2023/09/04 01:02:33;;;;;;;19.95;9.38;;;;;;;12.84;100.00;102559.63;6241456;23;20028;-82
2023/09/04 01:04:58;;;;;;;20.25;9.05;;;;;;;12.84;100.00;102556.94;6241868;23;20026;-83
2023/09/04 01:07:24;;;;;;;21.17;9.90;;;;;;;12.80;100.00;102558.06;6214934;23;20012;-82
2023/09/04 01:09:49;;;;;;;19.98;8.63;;;;;;;12.76;100.00;102557.34;6214690;23;20086;-82
2023/09/04 01:12:21;;;;;;;20.08;9.40;;;;;;;12.71;100.00;102556.72;6214958;23;20076;-82
2023/09/04 01:14:48;;;;;;;22.15;9.48;;;;;;;12.66;100.00;102556.09;6214640;23;20008;-82
2023/09/04 01:17:14;;;;;;;21.33;9.18;;;;;;;12.63;100.00;102545.47;6215533;23;20016;-82
2023/09/04 01:19:40;;;;;;;19.90;9.35;;;;;;;12.63;100.00;102556.28;6241879;23;20328;-82
2023/09/04 01:22:07;;;;;;;20.80;10.25;;;;;;;12.62;100.00;102550.97;6214981;23;20087;-82
2023/09/04 01:24:33;;;;;;;23.60;9.82;;;;;;;12.62;100.00;102542.88;6214928;23;20474;-82
2023/09/04 01:27:05;;;;;;;20.00;8.70;;;;;;;12.58;100.00;102536.78;6214185;23;20103;-83
2023/09/04 01:29:52;;;;;;;21.08;9.60;;;;;;;12.55;100.00;102545.06;6215365;23;20079;-82
2023/09/04 01:32:27;;;;;;;20.65;9.05;;;;;;;12.52;100.00;102554.16;6215392;23;20472;-82
2023/09/04 01:34:53;;;;;;;20.50;8.95;;;;;;;12.45;100.00;102551.91;6241923;23;20079;-83
2023/09/04 01:37:21;;;;;;;20.63;8.93;;;;;;;12.41;100.00;102551.19;6240143;23;19999;-82
2023/09/04 01:39:48;;;;;;;20.55;9.57;;;;;;;12.34;100.00;102550.66;6240010;23;20008;-82
2023/09/04 01:42:13;;;;;;;20.02;8.50;;;;;;;12.31;100.00;102549.94;6239766;23;20384;-82
2023/09/04 01:44:40;;;;;;;20.02;9.35;;;;;;;12.27;100.00;102549.25;6240431;23;20083;-82
2023/09/04 01:47:06;;;;;;;21.40;8.65;;;;;;;12.25;100.00;102556.50;6213456;23;20030;-82
2023/09/04 01:49:31;;;;;;;20.02;8.80;;;;;;;12.22;100.00;102545.91;6212921;23;20123;-82
2023/09/04 01:52:00;;;;;;;20.02;9.23;;;;;;;12.19;100.00;102552.31;6240054;23;20365;-82
2023/09/04 01:54:25;;;;;;;19.85;9.10;;;;;;;12.20;100.00;102545.97;6239629;23;20038;-82
2023/09/04 01:56:50;;;;;;;20.33;9.02;;;;;;;12.19;100.00;102546.91;6212756;23;20004;-82
2023/09/04 01:59:16;;;;;;;21.25;9.98;;;;;;;12.18;100.00;102549.69;6212795;23;20054;-81
2023/09/04 02:01:41;;;;;;;22.05;10.52;;;;;;;12.15;100.00;102550.75;6212930;23;20000;-82
2023/09/04 02:04:07;;;;;;;22.10;9.90;;;;;;;12.14;100.00;102550.81;6213078;23;20008;-82
2023/09/04 02:06:32;;;;;;;23.67;11.57;;;;;;;12.14;100.00;102550.81;6239890;23;20001;-82
2023/09/04 02:08:57;;;;;;;22.70;11.07;;;;;;;12.13;100.00;102541.88;6239572;23;20042;-82
2023/09/04 02:11:23;;;;;;;22.52;10.60;;;;;;;12.10;100.00;102536.63;6212650;23;20031;-82
2023/09/04 02:13:49;;;;;;;21.48;9.80;;;;;;;12.10;100.00;102531.25;6239148;23;20247;-82
2023/09/04 02:16:15;;;;;;;21.15;9.60;;;;;;;12.11;100.00;102542.88;6241964;23;20004;-82
2023/09/04 02:18:41;;;;;;;21.45;11.02;;;;;;;12.11;100.00;102534.81;6240849;23;20380;-82
2023/09/04 02:21:09;;;;;;;23.23;10.80;;;;;;;12.11;100.00;102533.00;6214305;23;20023;-82
2023/09/04 02:23:35;;;;;;;21.35;10.00;;;;;;;12.10;100.00;102523.16;6214911;23;20031;-81
2023/09/04 02:26:01;;;;;;;21.75;10.65;;;;;;;12.09;100.00;102521.41;6214453;23;20353;-82
2023/09/04 02:28:26;;;;;;;22.90;10.65;;;;;;;12.07;100.00;102518.81;6241355;23;20050;-82
2023/09/04 02:30:51;;;;;;;21.77;10.52;;;;;;;12.06;100.00;102513.50;6214466;23;19999;-82
2023/09/04 02:33:17;;;;;;;22.17;9.52;;;;;;;12.07;100.00;102512.56;6241572;23;20008;-81
2023/09/04 02:35:42;;;;;;;21.05;10.02;;;;;;;12.04;100.00;102510.88;6240138;23;20413;-80
2023/09/04 02:38:08;;;;;;;21.52;9.82;;;;;;;12.03;100.00;102505.56;6214363;23;20047;-81
2023/09/04 02:40:33;;;;;;;20.70;10.68;;;;;;;12.03;100.00;102513.66;6215024;23;20004;-81
2023/09/04 02:42:58;;;;;;;21.83;10.90;;;;;;;12.02;100.00;102510.09;6241831;23;20004;-81
2023/09/04 02:45:24;;;;;;;21.25;10.15;;;;;;;12.02;100.00;102509.22;6216517;23;20011;-80
2023/09/04 02:47:49;;;;;;;22.48;10.43;;;;;;;12.02;100.00;102507.41;6247081;23;20244;-80
2023/09/04 02:50:15;;;;;;;22.85;10.32;;;;;;;12.02;100.00;102504.72;6220334;23;20054;-80
2023/09/04 02:52:40;;;;;;;23.90;11.55;;;;;;;12.03;100.00;102509.13;6248267;23;20061;-80
2023/09/04 02:55:07;;;;;;;21.40;10.35;;;;;;;12.02;100.00;102506.53;6220407;23;20061;-80
2023/09/04 02:57:33;;;;;;;23.23;12.52;;;;;;;12.03;100.00;102508.28;6248566;23;20007;-80
2023/09/04 02:59:59;;;;;;;22.65;11.48;;;;;;;12.04;100.00;102504.63;6222875;23;20425;-80
2023/09/04 03:02:25;;;;;;;21.80;11.50;;;;;;;12.07;100.00;102499.06;6223197;23;20358;-80
2023/09/04 03:04:54;;;;;;;22.92;11.93;;;;;;;12.07;100.00;102497.25;6249896;23;20008;-81
2023/09/04 03:07:21;;;;;;;;;;;;;;;12.13;100.00;102501.44;6223247;23;20038;-80
2023/09/04 03:09:46;;;;;;;24.70;12.40;;;;;;;12.10;100.00;102488.13;6223736;23;20030;-81
2023/09/04 03:12:12;;;;;;;27.38;13.65;;;;;;;12.10;100.00;102488.13;6249759;23;20000;-81
2023/09/04 03:14:37;;;;;;;25.08;13.35;;;;;;;12.10;100.00;102482.75;6251392;23;20491;-80
2023/09/04 03:17:04;;;;;;;24.52;12.88;;;;;;;12.07;100.00;102478.38;6252031;23;20066;-80
2023/09/04 03:19:29;;;;;;;27.77;13.10;;;;;;;12.09;100.00;102474.75;6206751;23;20013;-81
2023/09/04 03:21:55;;;;;;;22.85;12.23;;;;;;;12.09;100.00;102474.75;6189237;23;20522;-81
2023/09/04 03:24:20;;;;;;;24.75;13.23;;;;;;;12.09;100.00;102464.81;6192107;23;20108;-81
2023/09/04 03:26:46;;;;;;;24.88;13.95;;;;;;;12.13;100.00;102462.84;6188484;23;20008;-80
2023/09/04 03:29:11;;;;;;;23.60;12.55;;;;;;;12.14;100.00;102461.88;6189923;23;20274;-82
2023/09/04 03:31:36;;;;;;;24.95;12.48;;;;;;;12.15;100.00;102474.41;6190929;23;20009;-81
2023/09/04 03:34:02;;;;;;;26.55;13.23;;;;;;;12.15;100.00;102480.69;6191527;23;20005;-81
2023/09/04 03:36:27;;;;;;;23.95;13.77;;;;;;;12.16;100.00;102486.94;6191144;23;20001;-81
2023/09/04 03:38:53;;;;;;;23.33;13.15;;;;;;;12.16;100.00;102487.78;6191811;23;20015;-81
2023/09/04 03:41:18;;;;;;;23.85;12.70;;;;;;;12.17;100.00;102473.38;6190610;23;20001;-81
2023/09/04 03:43:44;;;;;;;23.85;12.55;;;;;;;12.15;100.00;102479.78;6193655;23;20044;-81
2023/09/04 03:46:13;;;;;;;23.45;12.68;;;;;;;12.14;100.00;102476.22;6192752;23;20008;-81
2023/09/04 03:48:38;;;;;;;25.60;13.93;;;;;;;12.14;100.00;102476.22;6192091;23;20005;-81
2023/09/04 03:51:03;;;;;;;24.30;13.32;;;;;;;12.09;100.00;102475.59;6193319;23;20011;-81
2023/09/04 03:53:29;;;;;;;24.65;13.30;;;;;;;12.07;100.00;102462.22;6194277;23;20013;-81
2023/09/04 03:56:02;;;;;;;24.13;13.18;;;;;;;12.04;100.00;102466.91;6193563;23;20008;-81
2023/09/04 03:58:27;;;;;;;24.25;12.60;;;;;;;12.02;100.00;102467.00;6195967;23;20001;-81
2023/09/04 04:00:57;;;;;;;25.83;14.23;;;;;;;12.00;100.00;102466.19;6193632;23;19997;-81
2023/09/04 04:03:22;;;;;;;;;;;;;;;12.09;100.00;102463.97;6194127;23;20001;-81
2023/09/04 04:05:48;;;;;;;23.50;12.70;;;;;;;12.03;100.00;102470.53;6194672;23;19908;-81
2023/09/04 04:08:13;;;;;;;26.10;14.80;;;;;;;12.02;100.00;102474.19;6195237;23;20036;-81
2023/09/04 04:10:39;;;;;;;24.40;13.55;;;;;;;11.98;100.00;102473.50;6196645;23;20005;-81
2023/09/04 04:13:04;;;;;;;25.10;13.18;;;;;;;11.96;100.00;102464.63;6195742;23;20080;-81
2023/09/04 04:15:30;;;;;;;23.65;12.85;;;;;;;11.94;100.00;102468.34;6191669;23;20004;-85
2023/09/04 04:17:55;;;;;;;24.58;13.73;;;;;;;11.93;100.00;102474.66;6184527;23;20004;-85
2023/09/04 04:20:22;;;;;;;24.38;13.55;;;;;;;11.91;100.00;102468.47;6181147;23;20024;-84
2023/09/04 04:22:47;;;;;;;25.63;14.10;;;;;;;11.88;100.00;102472.19;6182686;23;20464;-85
2023/09/04 04:25:13;;;;;;;23.90;13.57;;;;;;;11.85;100.00;102475.06;6183043;23;20024;-85
2023/09/04 04:27:44;;;;;;;24.70;13.23;;;;;;;11.84;100.00;102471.47;6184365;23;20020;-85
2023/09/04 04:30:09;;;;;;;24.67;13.15;;;;;;;11.80;100.00;102464.53;6183135;23;19993;-83
2023/09/04 04:32:35;;;;;;;23.40;12.50;;;;;;;11.77;100.00;102474.59;6182916;23;20399;-85
2023/09/04 04:35:00;;;;;;;25.35;13.57;;;;;;;11.74;100.00;102466.66;6185271;23;20008;-85
2023/09/04 04:37:26;;;;;;;25.67;13.10;;;;;;;11.72;100.00;102466.75;6184206;23;20334;-85
2023/09/04 04:39:52;;;;;;;24.70;12.68;;;;;;;11.72;100.00;102469.44;6183311;23;20606;-85
2023/09/04 04:42:17;;;;;;;26.17;14.18;;;;;;;11.68;100.00;102465.16;6182430;23;20001;-85
2023/09/04 04:44:42;;;;;;;26.92;13.80;;;;;;;11.70;100.00;102457.88;6183486;23;20005;-84
2023/09/04 04:47:08;;;;;;;24.08;13.70;;;;;;;11.69;100.00;102459.69;6184326;23;20009;-85
2023/09/04 04:49:33;;;;;;;25.08;14.35;;;;;;;11.68;100.00;102459.78;6185446;23;20487;-85
2023/09/04 04:51:59;;;;;;;25.58;14.23;;;;;;;11.66;100.00;102457.16;6182612;23;20001;-86
2023/09/04 04:54:24;;;;;;;26.00;14.15;;;;;;;11.62;100.00;102462.78;6185705;23;20001;-84
2023/09/04 04:56:49;;;;;;;24.20;13.43;;;;;;;11.61;100.00;102452.97;6184533;23;20009;-84
2023/09/04 04:59:15;;;;;;;24.00;13.25;;;;;;;11.58;100.00;102456.72;6185508;23;20008;-85
2023/09/04 05:01:41;;;;;;;28.38;13.77;;;;;;;11.55;100.00;102448.75;6182073;23;20055;-85
2023/09/04 05:04:07;;;;;;;26.50;13.23;;;;;;;11.53;100.00;102459.63;6184232;23;20005;-84
2023/09/04 05:06:32;;;;;;;24.90;14.38;;;;;;;11.54;100.00;102463.19;6186746;23;20092;-84
2023/09/04 05:08:58;;;;;;;24.17;12.93;;;;;;;11.50;100.00;102462.47;6184327;23;20070;-85
2023/09/04 05:11:23;;;;;;;25.20;13.75;;;;;;;11.49;100.00;102463.44;6184313;23;20047;-85
2023/09/04 05:13:49;;;;;;;27.13;14.05;;;;;;;11.47;100.00;102480.63;6186733;23;20012;-85
2023/09/04 05:16:14;;;;;;;25.38;12.98;;;;;;;11.47;100.00;102470.69;6188635;23;20079;-85
2023/09/04 05:18:39;;;;;;;26.67;13.73;;;;;;;11.46;100.00;102466.25;6193442;23;20091;-84
2023/09/04 05:21:09;;;;;;;23.90;13.45;;;;;;;11.47;100.00;102475.22;6223371;23;20107;-85
2023/09/04 05:23:34;;;;;;;;;;;;;;;11.52;100.00;102471.34;6223112;23;20171;-84
2023/09/04 05:25:59;;;;;;;25.60;13.80;;;;;;;11.51;100.00;102471.44;6246113;23;19907;-81
2023/09/04 05:28:26;;;;;;;23.73;13.25;;;;;;;11.53;100.00;102470.38;6213117;23;20043;-80
2023/09/04 05:30:51;;;;;;;25.73;14.60;;;;;;;11.55;100.00;102470.31;6211888;23;20338;-80
2023/09/04 05:33:17;;;;;;;26.40;14.32;;;;;;;11.59;100.00;102477.28;6239555;23;20004;-80
2023/09/04 05:35:42;;;;;;;24.92;13.73;;;;;;;11.60;100.00;102472.78;6243040;23;20045;-83
2023/09/04 05:38:08;;;;;;;24.27;12.77;;;;;;;11.62;100.00;102474.44;6264073;23;20005;-82
2023/09/04 05:40:33;;;;;;;23.00;13.10;;;;;;;11.65;100.00;102471.56;6237641;23;19996;-80
2023/09/04 05:42:59;;;;;;;24.60;13.98;;;;;;;11.71;100.00;102475.78;6237717;23;20015;-82
2023/09/04 05:45:24;;;;;;;27.23;15.15;;;;;;;11.73;100.00;102468.50;6262164;23;20060;-81
2023/09/04 05:47:50;;;;;;;26.83;15.25;;;;;;;11.79;100.00;102464.63;6233651;23;20034;-82
2023/09/04 05:50:16;;;;;;;25.95;16.05;;;;;;;11.85;100.00;102473.22;6239178;23;20004;-82
2023/09/04 05:52:41;;;;;;;25.60;14.45;;;;;;;11.91;100.00;102465.78;6237526;23;20008;-82
2023/09/04 05:55:08;;;;;;;28.35;15.25;;;;;;;11.98;100.00;102467.25;6237926;23;20004;-82
2023/09/04 05:57:34;;;;;;;27.15;14.65;;;;;;;12.02;100.00;102458.91;6237693;23;20008;-82
2023/09/04 06:00:00;;;;;;;27.80;15.07;;;;;;;12.06;100.00;102471.28;6236494;23;20523;-82
2023/09/04 06:02:26;;;;;;;26.77;15.77;;;;;;;12.11;100.00;102467.44;6264069;23;20038;-82
2023/09/04 06:04:52;;;;;;;27.38;14.95;;;;;;;12.16;100.00;102465.38;6236889;23;20000;-82
2023/09/04 06:07:21;;;;;;;27.33;16.83;;;;;;;12.22;100.00;102471.28;6261865;23;20070;-82
2023/09/04 06:09:46;;;;;;;25.20;13.98;;;;;;;12.29;100.00;102463.75;6234886;23;20011;-82
2023/09/04 06:12:12;;;;;;;27.50;16.42;;;;;;;12.36;100.00;102472.38;6232908;23;20008;-82
2023/09/04 06:14:38;;;;;;;27.23;15.93;;;;;;;12.41;100.00;102472.97;6259294;23;20004;-82
2023/09/04 06:17:04;;;;;;;26.83;15.10;;;;;;;12.46;100.00;102473.63;6232098;23;20019;-82
2023/09/04 06:19:29;;;;;;;28.95;17.05;;;;;;;12.53;100.00;102474.13;6233072;23;20291;-82
2023/09/04 06:21:54;;;;;;;29.27;16.23;;;;;;;12.59;100.00;102468.38;6232455;23;20015;-82
2023/09/04 06:24:20;;;;;;;26.13;15.25;;;;;;;12.64;100.00;102477.09;6255432;23;20004;-82
2023/09/04 06:26:46;;;;;;;25.85;15.52;;;;;;;12.72;100.00;102473.97;6225374;23;20004;-82
2023/09/04 06:29:11;;;;;;;26.88;16.10;;;;;;;12.80;100.00;102479.81;6253661;23;20047;-81
2023/09/04 06:31:37;;;;;;;28.27;16.33;;;;;;;12.88;100.00;102471.28;6218541;23;20008;-80
2023/09/04 06:34:03;;;;;;;27.77;16.17;;;;;;;12.94;100.00;102468.22;6239513;23;20004;-80
2023/09/04 06:36:29;;;;;;;27.90;16.10;;;;;;;13.01;100.00;102468.75;6212821;23;20089;-80
2023/09/04 06:38:54;;;;;;;29.23;17.55;;;;;;;13.05;100.00;102470.31;6240892;23;20008;-79
2023/09/04 06:41:21;;;;;;;27.77;17.48;;;;;;;13.12;100.00;102466.28;6239298;23;20008;-80
2023/09/04 06:43:47;;;;;;;27.75;17.60;;;;;;;13.19;100.00;102467.69;6211500;23;20094;-80
2023/09/04 06:46:13;;;;;;;29.88;17.73;;;;;;;13.24;100.00;102465.56;6211167;23;20014;-79
2023/09/04 06:48:39;;;;;;;28.95;17.67;;;;;;;13.31;100.00;102465.19;6212156;23;20023;-79
2023/09/04 06:51:04;;;;;;;27.38;17.83;;;;;;;13.38;100.00;102462.09;6213191;23;20042;-82
2023/09/04 06:53:30;;;;;;;27.50;17.50;;;;;;;13.44;100.00;102472.53;6238364;23;20008;-79
2023/09/04 06:55:55;;;;;;;31.63;18.92;;;;;;;13.53;100.00;102456.72;6240397;23;20000;-79
2023/09/04 06:58:20;;;;;;;29.77;20.40;;;;;;;13.61;100.00;102458.00;6220385;23;20447;-80
2023/09/04 07:00:46;;;;;;;29.10;18.15;;;;;;;13.68;100.00;102457.66;6219479;23;20004;-80
2023/09/04 07:03:11;;;;;;;30.80;18.17;;;;;;;13.75;100.00;102459.00;6221643;23;20452;-80
2023/09/04 07:05:37;;;;;;;30.40;17.92;;;;;;;13.84;100.00;102457.59;6246564;23;20359;-79
2023/09/04 07:08:04;;;;;;;28.48;19.42;;;;;;;13.92;100.00;102461.50;6212199;23;20083;-80
2023/09/04 07:10:30;;;;;;;28.88;18.63;;;;;;;13.99;100.00;102452.06;6239719;23;20441;-80
2023/09/04 07:12:55;;;;;;;31.23;19.50;;;;;;;14.09;100.00;102446.09;6212289;23;20004;-80
2023/09/04 07:15:21;;;;;;;30.08;19.05;;;;;;;14.14;100.00;102449.38;6212433;23;20509;-80
2023/09/04 07:17:46;;;;;;;28.63;17.85;;;;;;;14.22;100.00;102448.91;6245849;23;20007;-79
2023/09/04 07:20:12;;;;;;;29.88;18.98;;;;;;;14.30;100.00;102444.72;6193639;23;20017;-80
2023/09/04 07:22:37;;;;;;;27.58;16.98;;;;;;;14.35;100.00;102455.28;6183274;23;20008;-79
2023/09/04 07:25:04;;;;;;;24.10;12.20;;;;;;;14.34;100.00;102456.22;6181057;23;20051;-78
2023/09/04 07:27:30;;;;;;;24.83;14.07;;;;;;;14.39;100.00;102447.81;6181053;23;20000;-78
2023/09/04 07:29:55;;;;;;;29.08;16.25;;;;;;;14.49;100.00;102457.09;6177921;23;20612;-78
2023/09/04 07:32:21;;;;;;;26.27;15.18;;;;;;;14.54;100.00;102460.38;6179509;23;20088;-78
2023/09/04 07:34:46;;;;;;;23.60;13.60;;;;;;;14.60;100.00;102468.09;6180665;23;20372;-79
2023/09/04 07:37:12;;;;;;;23.25;12.23;;;;;;;14.63;100.00;102457.09;6180745;23;20020;-78
2023/09/04 07:39:37;;;;;;;24.15;15.00;;;;;;;14.73;100.00;102462.78;6180747;23;20032;-78
2023/09/04 07:42:03;;;;;;;20.75;9.80;;;;;;;14.72;100.00;102460.19;6179203;23;20005;-78
2023/09/04 07:44:28;;;;;;;26.45;15.93;;;;;;;14.84;100.00;102459.38;6180893;23;20410;-78
2023/09/04 07:46:54;;;;;;;26.02;14.73;;;;;;;14.88;100.00;102463.63;6179522;23;20019;-78
2023/09/04 07:49:19;;;;;;;25.27;12.20;;;;;;;14.93;100.00;102461.47;6179012;23;20080;-78
2023/09/04 07:51:44;;;;;;;20.35;10.38;;;;;;;14.93;100.00;102458.75;6178940;23;20011;-78
2023/09/04 07:54:11;;;;;;;20.05;8.55;;;;;;;14.94;100.00;102446.97;6178952;23;20000;-78
2023/09/04 07:56:37;;;;;;;24.63;12.93;;;;;;;15.05;100.00;102445.38;6180624;23;20017;-78
2023/09/04 07:59:03;;;;;;;22.08;10.52;;;;;;;15.14;100.00;102442.03;6181042;23;20123;-78
2023/09/04 08:01:30;;;;;;;24.50;10.98;;;;;;;15.26;100.00;102437.66;6180555;23;20040;-77
2023/09/04 08:03:56;;;;;;;20.45;9.02;;;;;;;15.30;100.00;102448.19;6178465;23;20009;-78
2023/09/04 08:06:21;;;;;;;26.58;11.63;;;;;;;15.37;100.00;102448.63;6178680;23;20009;-78
2023/09/04 08:08:47;;;;;;;24.40;13.20;;;;;;;15.45;100.00;102442.69;6178556;23;20087;-79
2023/09/04 08:11:12;;;;;;;23.98;13.25;;;;;;;15.57;100.00;102439.13;6178746;23;20033;-79
2023/09/04 08:13:37;;;;;;;24.85;12.95;;;;;;;15.61;100.00;102442.47;6178557;23;20493;-77
2023/09/04 08:16:03;;;;;;;21.40;9.48;;;;;;;15.60;100.00;102441.63;6180492;23;20012;-78
2023/09/04 08:18:28;;;;;;;20.55;10.25;;;;;;;15.67;100.00;102437.50;6179475;23;20104;-77
2023/09/04 08:20:54;;;;;;;20.70;9.55;;;;;;;15.73;100.00;102437.06;6214471;23;20122;-80
2023/09/04 08:23:19;;;;;;;22.55;10.70;;;;;;;15.82;100.00;102437.44;6241811;23;20012;-80
2023/09/04 08:25:44;;;;;;;22.67;11.98;;;;;;;15.93;100.00;102444.81;6215333;23;20099;-81
2023/09/04 08:28:10;;;;;;;20.92;10.32;;;;;;;15.97;100.00;102447.19;6213692;23;20015;-80
2023/09/04 08:30:35;;;;;;;22.67;9.80;;;;;;;16.00;100.00;102436.16;6213958;23;19996;-80
2023/09/04 08:33:00;;;;;;;23.75;10.60;;;;;;;16.05;100.00;102431.25;6240461;23;20004;-82
2023/09/04 08:35:28;;;;;;;19.92;9.75;;;;;;;16.18;100.00;102438.50;6214187;23;20015;-83
2023/09/04 08:37:54;;;;;;;22.00;10.60;;;;;;;16.22;100.00;102427.34;6213580;23;20012;-81
2023/09/04 08:40:19;;;;;;;19.38;7.60;;;;;;;16.25;100.00;102437.97;6240565;23;20151;-81
2023/09/04 08:42:48;;;;;;;17.40;6.55;;;;;;;16.24;100.00;102438.09;6213402;23;20000;-81
2023/09/04 08:45:17;;;;;;;16.60;6.63;;;;;;;16.26;100.00;102430.69;6213554;23;20050;-84
2023/09/04 08:47:43;;;;;;;17.45;6.68;;;;;;;16.30;100.00;102434.06;6240639;23;20345;-81
2023/09/04 08:50:09;;;;;;;22.25;10.57;;;;;;;16.42;100.00;102438.59;6240701;23;20000;-82
2023/09/04 08:52:37;;;;;;;18.15;7.20;;;;;;;16.42;100.00;102431.28;6213223;23;20083;-80
2023/09/04 08:55:05;;;;;;;19.63;7.57;;;;;;;16.56;100.00;102437.56;6240756;23;20032;-82
2023/09/04 08:57:32;;;;;;;16.63;5.82;;;;;;;16.56;100.00;102435.72;6211169;23;20060;-83
2023/09/04 08:59:57;;;;;;;17.90;6.45;;;;;;;16.66;100.00;102430.50;6239634;23;20030;-77
2023/09/04 09:02:23;;;;;;;18.83;7.28;;;;;;;16.77;100.00;102427.81;6240016;23;20436;-77
2023/09/04 09:04:49;;;;;;;18.52;7.63;;;;;;;16.92;100.00;102424.97;6213638;23;20052;-78
2023/09/04 09:07:15;;;;;;;14.60;6.20;;;;;;;17.01;100.00;102424.28;6240162;23;20053;-78
2023/09/04 09:09:46;;;;;;;15.20;5.95;;;;;;;17.10;100.00;102428.16;6240286;23;20008;-77
2023/09/04 09:12:12;;;;;;;18.30;7.25;;;;;;;17.28;100.00;102423.19;6239601;23;20430;-77
2023/09/04 09:14:37;;;;;;;18.45;7.10;;;;;;;17.33;100.00;102433.69;6240140;23;20007;-77
2023/09/04 09:17:08;;;;;;;19.70;8.25;;;;;;;17.42;100.00;102424.81;6212683;23;20126;-76
2023/09/04 09:19:37;;;;;;;18.38;6.88;;;;;;;17.49;100.00;102423.34;6240190;23;20108;-76
2023/09/04 09:22:10;;;;;;;16.13;6.55;;;;;;;17.50;100.00;102426.94;6240405;23;20012;-76
2023/09/04 09:24:56;;;;;;;18.88;7.70;;;;;;;17.58;100.00;102427.19;6214329;23;20421;-78
2023/09/04 09:27:23;;;;;;;19.10;7.32;;;;;;;17.68;100.00;102427.38;6215044;23;20441;-77
2023/09/04 09:29:49;;;;;;;16.83;6.18;;;;;;;17.72;100.00;102432.44;6242556;23;20007;-77
2023/09/04 09:32:19;;;;;;;20.85;8.13;;;;;;;17.84;100.00;102433.31;6241681;23;20015;-77
2023/09/04 09:34:52;;;;;;;17.10;6.53;;;;;;;17.90;100.00;102435.56;6214834;23;20008;-76
2023/09/04 09:37:18;;;;;;;17.52;5.80;;;;;;;17.98;100.00;102435.00;6241219;23;20042;-79
2023/09/04 09:39:44;;;;;;;15.38;5.97;;;;;;;18.04;100.00;102430.88;6241900;23;20004;-79
2023/09/04 09:42:10;;;;;;;14.52;5.38;;;;;;;18.09;100.00;102426.81;6240953;23;20054;-79
2023/09/04 09:44:35;;;;;;;15.55;6.00;;;;;;;18.14;100.00;102429.16;6215057;23;20004;-79
2023/09/04 09:47:01;;;;;;;13.05;4.90;;;;;;;18.22;100.00;102428.56;6215296;23;20402;-79
2023/09/04 09:49:26;;;;;;;16.13;6.43;;;;;;;18.29;100.00;102425.22;6215054;23;20000;-80
2023/09/04 09:51:55;;;;;;;13.52;5.20;;;;;;;18.29;100.00;102421.63;6241783;23;20043;-80
2023/09/04 09:54:35;;;;;;;13.85;5.40;;;;;;;18.34;100.00;102413.94;6215338;23;20003;-80
2023/09/04 09:57:03;;;;;;;15.13;6.03;;;;;;;18.44;99.40;102420.34;6241421;23;20008;-79
2023/09/04 09:59:30;;;;;;;13.93;4.72;;;;;;;18.41;100.00;102412.44;6242342;23;20054;-80
2023/09/04 10:01:56;;;;;;;15.93;5.85;;;;;;;18.52;98.38;102417.88;6215057;23;20000;-80
2023/09/04 10:04:24;;;;;;;19.15;5.53;;;;;;;18.56;96.02;102413.03;6242193;23;20378;-79
2023/09/04 10:06:53;;;;;;;12.75;4.93;;;;;;;18.62;96.61;102403.50;6214328;23;20007;-78
2023/09/04 10:09:23;;;;;;;13.10;4.80;;;;;;;18.63;93.74;102391.63;6240584;23;20008;-79
2023/09/04 10:12:07;;;;;;;13.90;6.00;;;;;;;18.63;97.71;102405.25;6214987;23;20010;-78
2023/09/04 10:14:39;;;;;;;15.15;5.65;;;;;;;18.73;91.40;102402.59;6215100;23;20007;-78
2023/09/04 10:17:17;;;;;;;14.75;5.10;;;;;;;18.81;94.67;102398.22;6241934;23;20278;-78
2023/09/04 10:19:44;;;;;;;14.33;5.20;;;;;;;18.79;95.36;102408.41;6214383;23;20103;-78
2023/09/04 10:22:20;;;;;;;14.85;5.53;;;;;;;18.89;92.57;102404.94;6215075;23;20243;-78
2023/09/04 10:24:58;;;;;;;15.38;5.43;;;;;;;18.92;94.82;102402.84;6242275;23;20000;-78
2023/09/04 10:27:26;;;;;;;14.02;5.10;;;;;;;18.86;95.29;102397.91;6241977;23;20436;-79
2023/09/04 10:30:09;;;;;;;12.98;4.78;;;;;;;18.88;97.19;102393.19;6214798;23;20000;-79
2023/09/04 10:32:35;;;;;;;13.43;5.18;;;;;;;18.97;93.94;102386.94;6241709;23;20004;-79
2023/09/04 10:35:05;;;;;;;16.33;6.00;;;;;;;18.93;94.90;102380.06;6214100;23;20000;-78
2023/09/04 10:37:31;;;;;;;16.08;5.35;;;;;;;19.06;93.67;102377.13;6214733;23;20031;-78
2023/09/04 10:39:58;;;;;;;15.48;5.30;;;;;;;19.06;95.26;102377.13;6241646;23;20020;-78
2023/09/04 10:42:27;;;;;;;13.13;5.00;;;;;;;19.07;92.56;102372.56;6214520;23;20012;-79
2023/09/04 10:44:53;;;;;;;16.45;5.30;;;;;;;19.16;91.94;102372.59;6214766;23;20111;-79
2023/09/04 10:47:20;;;;;;;12.70;5.18;;;;;;;19.24;92.21;102369.25;6215151;23;20007;-79
2023/09/04 10:49:46;;;;;;;11.57;4.38;;;;;;;19.31;85.54;102373.19;6243639;23;20034;-80
2023/09/04 10:52:12;;;;;;;15.32;5.35;;;;;;;19.39;90.69;102362.44;6218384;23;20000;-80
2023/09/04 10:54:39;;;;;;;13.38;4.68;;;;;;;19.46;87.48;102365.53;6217395;23;20425;-82
2023/09/04 10:57:07;;;;;;;12.82;4.65;;;;;;;19.47;89.44;102361.78;6216263;23;20000;-82
2023/09/04 10:59:54;;;;;;;12.10;4.80;;;;;;;19.44;89.94;102359.31;6244146;23;20004;-80
2023/09/04 11:02:27;;;;;;;15.93;5.53;;;;;;;19.49;89.70;102357.06;6216714;23;20035;-81
2023/09/04 11:04:53;;;;;;;13.70;5.22;;;;;;;19.48;89.73;102347.16;6217719;23;20074;-80